Time;durP1;ratioP1;P1;durP2;ratioP2;P2;SDS_P1;SDS_P2;PMS_P1;PMS_P2;Temp;Humidity;BMP_temperature;BMP_pressure;BME280_temperature;BME280_humidity;BME280_pressure;Samples;Min_cycle;Max_cycle;Signal;HPM_P1;HPM_P2
2024/01/01 08:24:24;;;;;;;9.30;2.53;;;7.30;99.90;;;;;;6186507;23;20031;-80
2024/01/01 08:27:37;;;;;;;10.77;1.73;;;7.30;99.90;;;;;;6213615;23;20386;-79
2024/01/01 08:31:20;;;;;;;10.10;2.40;;;7.30;99.90;;;;;;6093158;23;20018;-80
2024/01/01 08:37:53;;;;;;;12.73;3.80;;;7.40;99.90;;;;;;6217048;23;20105;-80
2024/01/01 08:40:24;;;;;;;9.82;2.22;;;;;;;;;;6122445;23;20036;-79
2024/01/01 08:42:56;;;;;;;9.45;1.83;;;7.40;99.90;;;;;;6205269;23;20001;-80
2024/01/01 08:45:22;;;;;;;12.88;3.03;;;7.40;99.90;;;;;;6182125;23;20088;-79
2024/01/01 08:47:49;;;;;;;13.25;2.22;;;7.40;99.90;;;;;;6184993;23;20023;-80
2024/01/01 08:50:15;;;;;;;8.15;1.73;;;10.10;99.90;;;;;;6214720;23;20009;-79
2024/01/01 08:52:44;;;;;;;9.13;2.10;;;7.60;99.90;;;;;;6189108;23;20067;-79
2024/01/01 08:55:10;;;;;;;15.85;3.00;;;7.70;99.90;;;;;;6186480;23;20099;-78
2024/01/01 08:57:36;;;;;;;10.02;1.80;;;7.60;99.90;;;;;;6207519;23;20013;-78
2024/01/01 09:00:06;;;;;;;12.70;1.42;;;7.70;99.90;;;;;;6186354;23;20004;-79
2024/01/01 09:02:38;;;;;;;11.80;1.63;;;7.80;99.90;;;;;;6185658;23;20007;-79
2024/01/01 09:05:04;;;;;;;11.90;1.98;;;10.00;99.90;;;;;;6163072;23;20008;-79
2024/01/01 09:07:30;;;;;;;10.23;2.20;;;8.00;99.90;;;;;;6185697;23;20012;-80
2024/01/01 09:09:58;;;;;;;14.90;2.45;;;8.00;99.90;;;;;;6184860;23;20005;-77
2024/01/01 09:12:24;;;;;;;14.57;2.03;;;8.00;99.90;;;;;;6183295;23;20024;-79
2024/01/01 09:14:52;;;;;;;10.55;2.00;;;8.00;99.90;;;;;;6180819;23;20017;-80
2024/01/01 09:17:18;;;;;;;9.50;2.00;;;8.00;99.90;;;;;;6183804;23;20020;-79
2024/01/01 09:19:44;;;;;;;15.70;2.03;;;8.10;99.90;;;;;;6186724;23;20009;-79
2024/01/01 09:22:10;;;;;;;15.00;1.70;;;8.20;99.90;;;;;;6184445;23;20095;-78
2024/01/01 09:24:36;;;;;;;13.60;2.55;;;8.30;99.90;;;;;;6209094;23;19997;-80
2024/01/01 09:27:02;;;;;;;8.90;1.77;;;8.30;99.90;;;;;;6181081;23;20008;-80
2024/01/01 09:29:28;;;;;;;11.00;1.60;;;8.30;99.90;;;;;;6178232;23;20076;-79
2024/01/01 09:31:54;;;;;;;11.25;2.08;;;8.40;99.90;;;;;;6179476;23;20020;-80
2024/01/01 09:34:20;;;;;;;13.95;2.10;;;8.40;99.90;;;;;;6183011;23;20327;-79
2024/01/01 09:36:46;;;;;;;10.75;2.20;;;8.30;99.90;;;;;;6185215;23;20024;-79
2024/01/01 09:39:12;;;;;;;16.13;2.45;;;8.30;99.90;;;;;;6184773;23;20008;-79
2024/01/01 09:41:38;;;;;;;10.38;1.67;;;8.20;99.90;;;;;;6180286;23;20008;-78
2024/01/01 09:44:04;;;;;;;16.17;2.92;;;8.30;99.90;;;;;;6210881;23;19997;-78
2024/01/01 09:46:33;;;;;;;11.65;2.50;;;8.30;99.90;;;;;;6180856;23;20005;-79
2024/01/01 09:49:00;;;;;;;13.52;1.98;;;11.20;99.90;;;;;;6182565;23;20015;-77
2024/01/01 09:51:26;;;;;;;14.35;2.40;;;8.40;99.90;;;;;;6180212;23;20015;-77
2024/01/01 09:53:53;;;;;;;14.00;2.13;;;8.40;99.90;;;;;;6206829;23;20000;-79
2024/01/01 09:56:20;;;;;;;11.68;1.80;;;8.30;99.90;;;;;;6198176;23;20027;-78
2024/01/01 09:58:46;;;;;;;20.50;2.33;;;8.30;99.90;;;;;;6197193;23;20810;-77
2024/01/01 10:01:14;;;;;;;17.20;3.67;;;8.40;99.90;;;;;;6181395;23;20004;-81
2024/01/01 10:03:40;;;;;;;11.50;1.60;;;8.40;99.90;;;;;;6179956;23;20427;-79
2024/01/01 10:06:10;;;;;;;11.63;1.80;;;8.60;99.90;;;;;;6179896;23;20011;-80
2024/01/01 10:08:38;;;;;;;10.18;1.50;;;8.70;99.90;;;;;;6178920;23;20008;-79
2024/01/01 10:11:20;;;;;;;11.38;2.17;;;8.40;99.90;;;;;;6181693;23;20004;-79
2024/01/01 10:13:49;;;;;;;11.25;2.22;;;8.60;99.90;;;;;;6182048;23;20013;-80
2024/01/01 10:16:26;;;;;;;11.38;2.13;;;8.60;99.90;;;;;;6206656;23;20087;-79
2024/01/01 10:18:56;;;;;;;15.57;2.42;;;8.60;99.90;;;;;;6183497;23;20001;-78
2024/01/01 10:21:34;;;;;;;8.68;1.95;;;8.60;99.90;;;;;;6185119;23;20011;-77
2024/01/01 10:24:13;;;;;;;11.35;1.85;;;8.60;99.90;;;;;;6213047;23;20039;-79
2024/01/01 10:26:49;;;;;;;16.67;2.30;;;8.70;99.90;;;;;;6178886;23;20032;-78
2024/01/01 10:29:16;;;;;;;15.85;2.03;;;8.70;99.90;;;;;;6184900;23;20809;-78
2024/01/01 10:31:47;;;;;;;19.55;2.03;;;8.70;99.90;;;;;;6181538;23;20009;-79
2024/01/01 10:34:13;;;;;;;13.75;2.25;;;8.70;99.90;;;;;;6177178;23;20021;-80
2024/01/01 10:36:42;;;;;;;15.45;2.47;;;8.70;99.90;;;;;;6177007;23;20328;-77
2024/01/01 10:39:12;;;;;;;13.98;2.20;;;8.70;99.90;;;;;;6177265;23;20011;-78
2024/01/01 10:41:39;;;;;;;12.18;2.00;;;8.90;99.90;;;;;;6175170;23;20001;-78
2024/01/01 10:44:09;;;;;;;12.75;2.10;;;8.80;99.90;;;;;;6179450;23;20324;-79
2024/01/01 10:46:41;;;;;;;10.33;1.73;;;8.90;99.90;;;;;;6177669;23;20028;-78
2024/01/01 10:49:15;;;;;;;15.63;2.05;;;9.10;99.90;;;;;;6179600;23;20323;-80
2024/01/01 10:52:08;;;;;;;9.85;1.80;;;8.90;99.90;;;;;;6180451;23;20020;-79
2024/01/01 10:55:16;;;;;;;15.38;3.30;;;8.70;99.90;;;;;;6167435;23;20280;-81
2024/01/01 10:57:42;;;;;;;10.80;2.33;;;8.80;99.90;;;;;;6087609;23;20097;-79
2024/01/01 11:00:23;;;;;;;7.40;1.60;;;8.80;99.90;;;;;;6161514;23;20047;-80
2024/01/01 11:02:49;;;;;;;13.30;1.77;;;8.80;99.90;;;;;;6195040;23;20001;-78
2024/01/01 11:05:16;;;;;;;8.80;2.05;;;8.80;99.90;;;;;;6197806;23;20001;-80
2024/01/01 11:07:54;;;;;;;7.40;1.80;;;8.80;99.90;;;;;;6179079;23;20144;-79
2024/01/01 11:10:44;;;;;;;10.20;2.00;;;8.80;99.90;;;;;;6177084;23;20092;-78
2024/01/01 11:13:53;;;;;;;14.18;1.92;;;8.70;99.90;;;;;;6178107;23;20686;-78
2024/01/01 11:16:19;;;;;;;9.27;2.13;;;8.80;99.90;;;;;;6179101;23;20096;-78
2024/01/01 11:18:45;;;;;;;9.45;1.52;;;8.90;99.90;;;;;;6178052;23;20005;-79
2024/01/01 11:21:27;;;;;;;9.35;2.03;;;8.90;99.90;;;;;;6180730;23;20008;-80
2024/01/01 11:23:54;;;;;;;11.45;2.13;;;8.90;99.90;;;;;;6181403;23;20005;-79
2024/01/01 11:26:23;;;;;;;10.95;1.88;;;8.90;99.90;;;;;;6180043;23;20032;-77
2024/01/01 11:28:52;;;;;;;13.07;2.28;;;9.00;99.90;;;;;;6176594;23;20009;-78
2024/01/01 11:31:18;;;;;;;21.33;5.75;;;9.10;99.90;;;;;;6174825;23;20009;-81
2024/01/01 11:33:44;;;;;;;11.52;2.08;;;9.30;99.90;;;;;;6177055;23;20067;-79
2024/01/01 11:36:11;;;;;;;12.70;2.10;;;10.10;99.90;;;;;;6170796;23;20016;-77
2024/01/01 11:38:40;;;;;;;11.02;2.90;;;9.40;99.90;;;;;;6178681;23;20001;-78
2024/01/01 11:41:06;;;;;;;10.98;2.03;;;9.30;99.90;;;;;;6158163;23;20044;-79
2024/01/01 11:43:33;;;;;;;12.88;2.45;;;9.60;99.90;;;;;;6185882;23;20013;-80
2024/01/01 11:45:59;;;;;;;18.58;4.13;;;9.30;99.90;;;;;;6161113;23;20012;-80
2024/01/01 11:48:25;;;;;;;20.27;3.88;;;10.40;99.90;;;;;;6185072;23;19997;-80
2024/01/01 11:50:59;;;;;;;18.33;2.55;;;9.20;99.90;;;;;;6184435;23;20017;-80
2024/01/01 11:53:25;;;;;;;15.80;4.40;;;9.20;99.90;;;;;;6189742;23;20012;-80
2024/01/01 11:55:51;;;;;;;10.65;2.15;;;9.20;99.90;;;;;;6190399;23;20005;-80
2024/01/01 11:58:18;;;;;;;13.60;3.60;;;9.20;99.90;;;;;;6187920;23;20013;-80
2024/01/01 12:00:45;;;;;;;19.42;5.15;;;9.20;99.90;;;;;;6184598;23;20005;-80
2024/01/01 12:03:12;;;;;;;18.73;3.97;;;9.10;99.90;;;;;;6183432;23;20009;-81
2024/01/01 12:05:41;;;;;;;15.02;2.35;;;;;;;;;;6182985;23;20013;-80
2024/01/01 12:08:14;;;;;;;11.27;1.92;;;9.20;99.90;;;;;;6184485;23;20008;-80
2024/01/01 12:10:42;;;;;;;14.80;2.65;;;9.20;99.90;;;;;;6183849;23;20118;-80
2024/01/01 12:13:11;;;;;;;10.07;1.95;;;9.30;99.90;;;;;;6184947;23;20189;-82
2024/01/01 12:15:38;;;;;;;13.60;2.45;;;;;;;;;;6181975;23;20458;-80
2024/01/01 12:18:05;;;;;;;11.75;2.33;;;9.30;99.90;;;;;;6182518;23;20065;-79
2024/01/01 12:21:10;;;;;;;15.75;2.83;;;9.20;99.90;;;;;;6183417;23;19998;-80
2024/01/01 12:27:53;;;;;;;12.32;2.30;;;9.20;99.90;;;;;;6137056;23;20020;-80
2024/01/01 12:30:55;;;;;;;12.88;2.20;;;9.20;99.90;;;;;;6105132;23;20035;-80
2024/01/01 12:34:40;;;;;;;10.98;2.00;;;9.20;99.90;;;;;;6118967;23;20002;-79
2024/01/01 12:37:44;;;;;;;14.20;2.63;;;9.50;99.90;;;;;;6017217;23;20492;-80
2024/01/01 12:41:35;;;;;;;13.57;2.45;;;9.20;99.90;;;;;;6093206;23;20536;-83
2024/01/01 12:58:26;;;;;;;11.10;1.88;;;9.60;99.90;;;;;;6082322;23;20116;-80
2024/01/01 13:15:41;;;;;;;7.88;1.65;;;9.40;99.90;;;;;;5933362;24;20020;-82
2024/01/01 13:29:14;;;;;;;11.25;1.85;;;9.40;99.90;;;;;;5759821;25;20031;-82
2024/01/01 13:31:41;;;;;;;;;;;9.60;99.90;;;;;;5801113;24;20021;-83
2024/01/01 13:34:09;;;;;;;9.98;1.73;;;9.20;99.90;;;;;;5944628;24;19911;-82
2024/01/01 13:36:44;;;;;;;13.13;2.40;;;9.30;99.90;;;;;;6035081;23;20022;-82
2024/01/01 13:39:14;;;;;;;21.60;3.15;;;8.40;99.90;;;;;;6044012;23;20002;-82
2024/01/01 13:41:40;;;;;;;19.17;2.40;;;;;;;;;;6109650;23;20001;-81
2024/01/01 13:44:08;;;;;;;14.93;3.15;;;9.40;99.90;;;;;;6173901;23;20001;-81
2024/01/01 13:46:49;;;;;;;15.07;2.35;;;9.50;99.90;;;;;;6197506;23;20088;-81
2024/01/01 13:49:19;;;;;;;12.57;1.90;;;12.30;99.90;;;;;;6169906;23;20394;-81
2024/01/01 13:51:46;;;;;;;15.73;2.40;;;9.40;99.90;;;;;;6168746;23;20005;-81
2024/01/01 13:54:12;;;;;;;15.23;2.70;;;11.60;99.90;;;;;;6196669;23;20020;-82
2024/01/01 13:56:39;;;;;;;15.60;2.28;;;9.40;99.90;;;;;;6197929;23;20016;-82
2024/01/01 13:59:11;;;;;;;12.95;2.55;;;10.10;99.90;;;;;;6197153;23;20017;-82
2024/01/01 14:01:39;;;;;;;11.45;2.38;;;;;;;;;;6177899;23;20001;-82
2024/01/01 14:04:14;;;;;;;10.48;2.03;;;9.40;99.90;;;;;;6177021;23;20001;-82
2024/01/01 14:14:39;;;;;;;13.25;2.30;;;9.30;99.90;;;;;;6193369;23;20234;-81
2024/01/01 14:22:17;;;;;;;12.40;2.53;;;;;;;;;;6131725;23;20021;-81
2024/01/01 14:24:49;;;;;;;11.13;2.50;;;;;;;;;;6130003;23;20006;-80
2024/01/01 14:27:24;;;;;;;15.50;2.85;;;9.30;99.90;;;;;;6153039;23;20317;-80
2024/01/01 14:30:20;;;;;;;19.05;2.92;;;9.00;99.90;;;;;;6157341;23;20014;-80
2024/01/01 14:32:53;;;;;;;14.48;2.47;;;;;;;;;;6158213;23;20010;-81
2024/01/01 14:40:23;;;;;;;19.95;2.55;;;;;;;;;;6163394;22;20024;-80
2024/01/01 14:42:50;;;;;;;15.13;2.33;;;;;;;;;;6217748;23;20004;-80
2024/01/01 14:45:17;;;;;;;17.42;2.72;;;9.40;99.90;;;;;;6219711;23;20001;-79
2024/01/01 14:47:51;;;;;;;11.75;4.03;;;9.30;99.90;;;;;;6168933;23;20503;-80
2024/01/01 14:50:23;;;;;;;9.27;2.28;;;9.30;99.90;;;;;;6164445;23;20230;-81
2024/01/01 14:52:50;;;;;;;14.18;2.15;;;9.30;99.90;;;;;;6139104;23;20005;-81
2024/01/01 14:55:18;;;;;;;14.80;3.08;;;;;;;;;;6135499;23;20008;-80
2024/01/01 14:57:46;;;;;;;10.13;2.40;;;9.30;99.90;;;;;;6160638;23;20009;-79
2024/01/01 15:00:18;;;;;;;13.60;2.00;;;9.20;99.90;;;;;;6139107;23;20013;-80
2024/01/01 15:02:46;;;;;;;20.58;2.72;;;;;;;;;;6190253;23;20084;-81
2024/01/01 15:05:19;;;;;;;14.65;2.50;;;9.30;99.90;;;;;;6191876;23;20096;-81
2024/01/01 15:07:47;;;;;;;17.63;3.03;;;9.30;99.90;;;;;;6164482;23;20311;-80
2024/01/01 15:17:00;;;;;;;16.13;2.90;;;9.20;99.90;;;;;;6196619;23;20032;-80
2024/01/01 15:19:29;;;;;;;17.63;2.75;;;9.10;99.90;;;;;;6161354;23;20462;-80
2024/01/01 16:58:02;;;;;;;11.13;2.33;;;8.40;99.90;;;;;;6158953;23;20027;-83
2024/01/01 17:00:45;;;;;;;14.55;2.35;;;8.40;99.90;;;;;;6210561;23;20004;-82
2024/01/01 17:03:12;;;;;;;10.50;2.25;;;;;;;;;;6203759;23;20000;-80
2024/01/01 17:05:39;;;;;;;14.80;2.47;;;8.70;99.90;;;;;;6192413;23;20014;-80
2024/01/01 17:08:07;;;;;;;12.48;2.60;;;9.40;99.90;;;;;;6190435;23;20028;-81
2024/01/01 17:10:40;;;;;;;10.15;2.45;;;;;;;;;;6169091;23;20040;-81
2024/01/01 17:13:07;;;;;;;14.38;2.95;;;;;;;;;;6220920;23;20009;-80
2024/01/01 17:15:37;;;;;;;15.68;3.03;;;8.40;99.90;;;;;;6219537;23;20004;-80
2024/01/01 17:18:05;;;;;;;14.32;2.20;;;;;;;;;;6219979;23;20036;-81
2024/01/01 17:20:36;;;;;;;12.45;2.60;;;;;;;;;;6229442;23;20007;-81
2024/01/01 17:23:02;;;;;;;14.45;2.40;;;;;;;;;;6233478;23;20005;-79
2024/01/01 17:28:43;;;;;;;15.00;2.85;;;;;;;;;;6188357;23;20028;-80
2024/01/01 17:31:13;;;;;;;10.85;2.38;;;;;;;;;;6189679;23;20020;-80
2024/01/01 17:33:45;;;;;;;8.70;2.00;;;;;;;;;;6189910;23;20012;-80
2024/01/01 17:36:12;;;;;;;10.57;2.40;;;;;;;;;;6186944;23;20005;-80
2024/01/01 17:38:38;;;;;;;12.93;2.55;;;;;;;;;;6213297;23;20770;-80
2024/01/01 17:41:05;;;;;;;9.93;2.30;;;;;;;;;;6212754;23;20059;-80
2024/01/01 17:43:33;;;;;;;13.32;2.22;;;;;;;;;;6189176;23;20024;-80
2024/01/01 17:46:00;;;;;;;11.80;2.67;;;;;;;;;;6188830;23;20364;-79
2024/01/01 17:48:31;;;;;;;13.38;2.42;;;;;;;;;;6212140;23;20008;-80
2024/01/01 17:51:02;;;;;;;;;;;8.50;99.90;;;;;;6212790;23;20005;-80
2024/01/01 17:53:29;;;;;;;8.48;2.53;;;;;;;;;;6186632;23;19970;-80
2024/01/01 17:55:57;;;;;;;12.38;3.53;;;;;;;;;;6188800;23;20005;-80
2024/01/01 17:58:42;;;;;;;17.17;4.50;;;;;;;;;;6212050;23;20005;-81
2024/01/01 18:01:10;;;;;;;10.05;2.55;;;;;;;;;;6213451;23;20348;-80
2024/01/01 18:03:52;;;;;;;13.98;2.80;;;;;;;;;;6186759;23;20001;-80
2024/01/01 18:16:17;;;;;;;11.88;2.00;;;;;;;;;;6105986;23;20438;-81
2024/01/01 18:18:44;;;;;;;10.90;2.65;;;;;;;;;;6133307;23;20037;-80
2024/01/01 18:21:11;;;;;;;12.27;1.80;;;;;;;;;;6158251;23;20002;-80
2024/01/01 18:23:44;;;;;;;15.27;2.63;;;8.20;99.90;;;;;;6201793;23;19997;-80
2024/01/01 18:26:11;;;;;;;10.60;2.20;;;;;;;;;;6209182;23;20039;-79
2024/01/01 18:28:39;;;;;;;12.75;2.40;;;;;;;;;;6233528;23;20015;-82
2024/01/01 18:31:16;;;;;;;10.38;1.90;;;8.20;99.90;;;;;;6211591;23;20320;-81
2024/01/01 18:33:47;;;;;;;10.90;1.60;;;;;;;;;;6208157;23;20077;-81
2024/01/01 18:36:17;;;;;;;9.38;2.10;;;;;;;;;;6234816;23;19996;-81
2024/01/01 18:38:48;;;;;;;11.10;1.70;;;;;;;;;;6211474;23;19996;-81
2024/01/01 18:41:16;;;;;;;8.25;1.65;;;;;;;;;;6210198;23;19997;-80
2024/01/01 18:43:44;;;;;;;8.77;2.08;;;;;;;;;;6224126;23;20051;-81
2024/01/01 18:46:13;;;;;;;7.55;1.42;;;;;;;;;;6192357;23;20001;-79
2024/01/01 18:48:44;;;;;;;19.27;3.22;;;8.20;99.90;;;;;;6193337;23;20076;-82
2024/01/01 18:51:17;;;;;;;16.90;5.30;;;;;;;;;;6191949;23;20005;-80
2024/01/01 18:53:47;;;;;;;13.90;2.50;;;;;;;;;;6214802;23;20001;-80
2024/01/01 18:56:22;;;;;;;10.23;2.67;;;;;;;;;;6214822;23;20001;-80
2024/01/01 18:58:52;;;;;;;13.23;2.88;;;;;;;;;;6214901;23;20466;-80
2024/01/01 19:01:20;;;;;;;11.75;2.38;;;;;;;;;;6214694;23;20009;-80
2024/01/01 19:03:49;;;;;;;13.18;2.60;;;;;;;;;;6214405;23;20479;-81
2024/01/01 19:06:25;;;;;;;11.00;1.88;;;8.20;99.90;;;;;;6188781;23;20054;-80
2024/01/01 19:08:52;;;;;;;5.30;1.77;;;;;;;;;;6213515;23;20027;-81
2024/01/01 19:11:23;;;;;;;11.82;2.42;;;;;;;;;;6190232;23;20008;-80
2024/01/01 19:14:00;;;;;;;10.88;1.75;;;;;;;;;;6187508;23;20083;-81
2024/01/01 19:21:50;;;;;;;18.50;4.55;;;;;;;;;;6187348;23;20024;-81
2024/01/01 19:24:20;;;;;;;11.40;2.58;;;;;;;;;;6218217;23;20035;-82
2024/01/01 19:39:50;;;;;;;9.65;1.95;;;;;;;;;;6185784;23;20021;-81
2024/01/01 19:42:17;;;;;;;11.27;2.13;;;;;;;;;;6193852;23;20013;-81
2024/01/01 19:44:45;;;;;;;7.85;1.70;;;;;;;;;;6191214;23;20375;-80
2024/01/01 19:47:12;;;;;;;6.88;1.40;;;;;;;;;;6191287;23;20004;-81
2024/01/01 19:49:45;;;;;;;8.70;1.30;;;;;;;;;;6157739;23;20001;-81
2024/01/01 19:52:15;;;;;;;9.93;1.70;;;;;;;;;;6158906;23;20039;-81
2024/01/01 19:54:42;;;;;;;9.95;3.03;;;;;;;;;;6158024;23;20428;-82
2024/01/01 19:57:10;;;;;;;7.13;2.10;;;8.00;99.90;;;;;;6161252;23;20356;-81
2024/01/01 19:59:40;;;;;;;8.95;1.55;;;8.00;99.90;;;;;;6161156;23;20001;-81
2024/01/01 20:02:12;;;;;;;6.93;1.75;;;9.60;99.90;;;;;;6160810;23;20056;-81
2024/01/01 20:04:44;;;;;;;7.35;1.98;;;8.00;99.90;;;;;;6172307;23;20005;-82
2024/01/01 20:09:50;;;;;;;5.88;1.45;;;;;;;;;;6188261;23;20017;-81
2024/01/01 20:12:19;;;;;;;10.68;2.10;;;;;;;;;;6226212;23;20004;-82
2024/01/01 20:14:45;;;;;;;9.55;2.10;;;;;;;;;;6223244;23;20009;-82
2024/01/01 20:17:15;;;;;;;5.63;1.65;;;;;;;;;;6224367;23;20007;-82
2024/01/01 20:19:45;;;;;;;8.95;2.67;;;;;;;;;;6220236;23;20004;-82
2024/01/01 20:22:11;;;;;;;4.35;1.58;;;;;;;;;;6220614;23;19996;-82
2024/01/01 20:24:43;;;;;;;6.75;1.73;;;8.00;99.90;;;;;;6220241;23;20004;-82
2024/01/01 20:27:11;;;;;;;6.22;1.75;;;;;;;;;;6220892;23;20008;-81
2024/01/01 20:29:39;;;;;;;5.30;1.33;;;;;;;;;;6219827;23;20008;-83
2024/01/01 20:32:06;;;;;;;6.70;1.80;;;;;;;;;;6221076;23;20347;-80
2024/01/01 20:34:34;;;;;;;8.27;1.77;;;;;;;;;;6220067;23;20009;-81
2024/01/01 20:37:01;;;;;;;8.07;1.35;;;;;;;;;;6219689;23;20069;-81
2024/01/01 20:39:30;;;;;;;6.32;1.50;;;;;;;;;;6222166;23;20001;-84
2024/01/01 20:41:57;;;;;;;5.63;1.70;;;;;;;;;;6229299;23;19997;-81
2024/01/01 20:44:24;;;;;;;5.70;1.60;;;;;;;;;;6230695;23;20480;-81
2024/01/01 20:46:51;;;;;;;6.90;1.40;;;;;;;;;;6222215;23;20013;-81
2024/01/01 20:49:22;;;;;;;6.93;1.77;;;;;;;;;;6221220;23;20009;-82
2024/01/01 20:51:50;;;;;;;6.85;1.90;;;;;;;;;;6221873;23;20008;-80
2024/01/01 20:54:17;;;;;;;6.28;1.77;;;8.10;99.90;;;;;;6224486;23;20031;-81
2024/01/01 20:59:19;;;;;;;4.57;1.50;;;;;;;;;;6218867;22;20019;-81
2024/01/01 21:01:48;;;;;;;5.43;1.48;;;;;;;;;;6225218;23;20382;-81
2024/01/01 21:04:17;;;;;;;7.63;1.60;;;;;;;;;;6251913;23;20004;-81
2024/01/01 21:06:48;;;;;;;8.98;1.60;;;;;;;;;;6251716;23;20366;-82
2024/01/01 21:16:27;;;;;;;8.82;2.08;;;8.10;99.90;;;;;;6253834;23;20007;-81
2024/01/01 21:26:00;;;;;;;5.82;1.67;;;;;;;;;;6262693;22;20011;-82
2024/01/01 21:49:41;;;;;;;4.03;1.52;;;8.00;99.90;;;;;;6226099;23;20047;-81
2024/01/01 21:52:30;;;;;;;6.72;1.17;;;;;;;;;;6200589;23;20009;-82
2024/01/01 21:54:57;;;;;;;6.50;1.40;;;;;;;;;;6237272;23;20000;-83
2024/01/01 22:31:08;;;;;;;6.78;1.77;;;;;;;;;;6215408;23;20100;-82
2024/01/01 22:33:37;;;;;;;7.22;2.60;;;8.00;99.90;;;;;;6201447;23;20001;-82
2024/01/01 22:36:05;;;;;;;7.50;1.60;;;8.00;99.90;;;;;;6224395;23;20031;-82
2024/01/01 22:38:33;;;;;;;5.22;1.40;;;8.00;99.90;;;;;;6198229;23;20005;-82
2024/01/01 22:41:04;;;;;;;4.78;1.30;;;;;;;;;;6224318;23;20005;-82
2024/01/01 22:43:35;;;;;;;5.78;1.27;;;8.00;99.90;;;;;;6224899;23;20415;-84
2024/01/01 22:46:02;;;;;;;3.90;1.27;;;;;;;;;;6197924;23;20000;-82
2024/01/01 22:48:29;;;;;;;6.75;1.58;;;8.00;99.90;;;;;;6228302;23;20012;-82
2024/01/01 22:50:57;;;;;;;5.53;1.60;;;8.00;99.90;;;;;;6201337;23;20058;-81
2024/01/01 22:53:33;;;;;;;4.30;1.65;;;8.00;99.90;;;;;;6151020;23;20454;-84
2024/01/01 22:56:01;;;;;;;6.38;1.52;;;8.00;99.90;;;;;;6202168;23;20009;-82
2024/01/01 22:58:31;;;;;;;4.63;1.60;;;7.90;99.90;;;;;;6227753;23;20016;-81
2024/01/01 23:01:18;;;;;;;2.55;1.20;;;8.00;99.90;;;;;;6201996;23;19996;-82
2024/01/01 23:03:58;;;;;;;5.15;1.63;;;7.90;99.90;;;;;;6179964;23;20004;-81
2024/01/01 23:06:27;;;;;;;7.13;1.50;;;;;;;;;;6235179;23;20008;-82
2024/01/01 23:09:25;;;;;;;4.35;1.20;;;;;;;;;;6239242;23;20035;-82
2024/01/01 23:12:00;;;;;;;3.88;1.40;;;7.90;99.90;;;;;;6237437;23;20000;-83
2024/01/01 23:14:34;;;;;;;5.13;1.40;;;8.00;99.90;;;;;;6212035;23;20041;-81
2024/01/01 23:17:08;;;;;;;5.22;1.30;;;7.90;99.90;;;;;;6215474;23;20035;-82
2024/01/01 23:19:52;;;;;;;2.97;1.25;;;8.00;99.90;;;;;;6215370;23;19985;-82
2024/01/01 23:22:27;;;;;;;5.40;1.30;;;8.00;99.90;;;;;;6190279;23;20007;-84
2024/01/01 23:25:15;;;;;;;4.97;1.45;;;6.70;99.90;;;;;;6232985;22;20064;-82
2024/01/01 23:59:19;;;;;;;7.65;1.50;;;7.70;99.90;;;;;;6188165;23;20021;-81
